메인 페이지
METAR-TAF:

METAR-TAF

공항 :

이타카, 뉴욕, 미국

위도: 42-29N, 경도: 076-27W, 고도: 335m

현재 날씨관측

예보는 25분 전, 23:56시(UTC)에 발표되었습니다.
남서14kt, 순간 최대 풍속 21kt
온도 1°C
습도 80%
기압 1001 hPa
시정: 14.5km
고도 2700ft 상공 구름 조금
고도 3400ft 상공 구름 보통
고도 6000ft 상공 흐림
약한눈

METAR: KITH 012356Z 22014G21KT 9SM -SN FEW027 SCT034 OVC060 01/M02 A2956 RMK AO2 RAB21E23 SLP017 P0000 60000 T00061022 10039 20006 51020

시각: 19:21 (00:21 UTC)

예보

예보는 35분 전, 23:46시(UTC)에 발표되었습니다.
예보 대상 시간: 02일 00시부터 02일 24시까지 (UTC)
남남서11kt, 순간 최대 풍속 21kt
시정: 10km
고도 1500ft 상공 구름 보통
고도 3500ft 상공 구름 많음
일시적
02일 00시부터 02일 02시까지 (UTC)
시정: 4.8km
고도 1000ft 상공 흐림
약한소낙눈, 박무
02일 0300시부터 (UTC)
남서12kt
시정: 9.7km
고도 1500ft 상공 흐림
약한소낙눈
일시적
02일 08시부터 02일 12시까지 (UTC)
시정: 4.8km
고도 800ft 상공 흐림
약한소낙눈
02일 1500시부터 (UTC)
11kt, 순간 최대 풍속 19kt
시정: 9.7km
고도 1500ft 상공 흐림
박무
02일 1700시부터 (UTC)
12kt, 순간 최대 풍속 22kt
시정: 10km
고도 2000ft 상공 구름 많음
02일 2100시부터 (UTC)
13kt, 순간 최대 풍속 23kt
시정: 10km
고도 1600ft 상공 구름 보통

TAF: KITH 012346Z 0200/0224 21011G21KT P6SM SCT015 BKN035 TEMPO 0200/0202 3SM -SHSN BR OVC010 FM020300 23012KT 6SM -SHSN OVC015 TEMPO 0208/0212 3SM -SHSN OVC008 FM021500 26011G19KT 6SM BR OVC015 FM021700 27012G22KT P6SM BKN020 FM022100 27013G23KT P6SM SCT016

4,000개 이상의 공항 관측 자료 및 예보 (METAR 및 TAF 보고).

지도상에서 검색 가능한 기상관측소가 노란 점과 빨간 점으로 표시되어 있습니다.

기상관측소 명을 보려면 표시 위로 마우스를 이동하세요.

날씨 관측과 예보를 보려면 클릭하세요.

지도 변경 : 확대하려면 엑스 표시가 있는 녹색 버튼, 축소하려면 빼기 표시가 있는 녹색 버튼, 다음 페이지의 지도를 보려면 녹색 화살표를 클릭하세요.


METAR-TAF: